sensor_id;sensor_type;location;lat;lon;timestamp;P1;durP1;ratioP1;P2;durP2;ratioP2
45694;SDS011;31408;45.468;9.124;2024-01-30T00:01:38;39.60;;;17.08;;
45694;SDS011;31408;45.468;9.124;2024-01-30T00:04:03;43.13;;;18.48;;
45694;SDS011;31408;45.468;9.124;2024-01-30T00:06:31;40.80;;;17.90;;
45694;SDS011;31408;45.468;9.124;2024-01-30T00:08:57;43.30;;;18.52;;
45694;SDS011;31408;45.468;9.124;2024-01-30T00:11:22;39.60;;;18.25;;
45694;SDS011;31408;45.468;9.124;2024-01-30T00:13:48;33.63;;;17.80;;
45694;SDS011;31408;45.468;9.124;2024-01-30T00:16:20;37.50;;;19.42;;
45694;SDS011;31408;45.468;9.124;2024-01-30T00:18:45;37.10;;;18.27;;
45694;SDS011;31408;45.468;9.124;2024-01-30T00:21:11;36.90;;;19.80;;
45694;SDS011;31408;45.468;9.124;2024-01-30T00:23:36;37.35;;;17.38;;
45694;SDS011;31408;45.468;9.124;2024-01-30T00:26:02;37.08;;;19.92;;
45694;SDS011;31408;45.468;9.124;2024-01-30T00:28:27;40.90;;;18.80;;
45694;SDS011;31408;45.468;9.124;2024-01-30T00:30:53;34.38;;;18.48;;
45694;SDS011;31408;45.468;9.124;2024-01-30T00:33:18;34.13;;;16.10;;
45694;SDS011;31408;45.468;9.124;2024-01-30T00:35:43;34.20;;;17.95;;
45694;SDS011;31408;45.468;9.124;2024-01-30T00:38:09;34.88;;;17.05;;
45694;SDS011;31408;45.468;9.124;2024-01-30T00:40:34;35.00;;;16.08;;
45694;SDS011;31408;45.468;9.124;2024-01-30T00:42:59;44.80;;;16.98;;
45694;SDS011;31408;45.468;9.124;2024-01-30T00:45:25;36.92;;;17.98;;
45694;SDS011;31408;45.468;9.124;2024-01-30T00:47:50;39.03;;;16.75;;
45694;SDS011;31408;45.468;9.124;2024-01-30T00:50:16;35.17;;;18.20;;
45694;SDS011;31408;45.468;9.124;2024-01-30T00:52:41;32.58;;;15.93;;
45694;SDS011;31408;45.468;9.124;2024-01-30T00:55:07;34.90;;;17.90;;
45694;SDS011;31408;45.468;9.124;2024-01-30T00:57:32;40.80;;;18.38;;
45694;SDS011;31408;45.468;9.124;2024-01-30T00:59:58;34.95;;;16.75;;
45694;SDS011;31408;45.468;9.124;2024-01-30T01:02:23;35.60;;;17.58;;
45694;SDS011;31408;45.468;9.124;2024-01-30T01:04:48;33.55;;;17.27;;
45694;SDS011;31408;45.468;9.124;2024-01-30T01:07:14;29.50;;;16.15;;
45694;SDS011;31408;45.468;9.124;2024-01-30T01:09:39;35.38;;;17.55;;
45694;SDS011;31408;45.468;9.124;2024-01-30T01:12:05;39.20;;;18.30;;
45694;SDS011;31408;45.468;9.124;2024-01-30T01:14:30;33.78;;;17.17;;
45694;SDS011;31408;45.468;9.124;2024-01-30T01:16:55;34.97;;;15.48;;
45694;SDS011;31408;45.468;9.124;2024-01-30T01:19:21;38.92;;;18.42;;
45694;SDS011;31408;45.468;9.124;2024-01-30T01:21:46;32.47;;;13.70;;
45694;SDS011;31408;45.468;9.124;2024-01-30T01:24:12;31.15;;;15.23;;
45694;SDS011;31408;45.468;9.124;2024-01-30T01:26:37;32.85;;;16.38;;
45694;SDS011;31408;45.468;9.124;2024-01-30T01:29:02;35.25;;;17.35;;
45694;SDS011;31408;45.468;9.124;2024-01-30T01:31:35;32.00;;;15.40;;
45694;SDS011;31408;45.468;9.124;2024-01-30T01:34:00;39.85;;;19.52;;
45694;SDS011;31408;45.468;9.124;2024-01-30T01:36:25;33.95;;;17.08;;
45694;SDS011;31408;45.468;9.124;2024-01-30T01:38:51;37.85;;;17.50;;
45694;SDS011;31408;45.468;9.124;2024-01-30T01:41:16;41.60;;;17.92;;
45694;SDS011;31408;45.468;9.124;2024-01-30T01:43:41;34.38;;;16.40;;
45694;SDS011;31408;45.468;9.124;2024-01-30T01:46:07;32.83;;;16.33;;
45694;SDS011;31408;45.468;9.124;2024-01-30T01:48:33;38.42;;;18.25;;
45694;SDS011;31408;45.468;9.124;2024-01-30T01:50:58;36.97;;;15.43;;
45694;SDS011;31408;45.468;9.124;2024-01-30T01:53:24;41.28;;;17.50;;
45694;SDS011;31408;45.468;9.124;2024-01-30T01:55:49;34.38;;;16.70;;
45694;SDS011;31408;45.468;9.124;2024-01-30T01:58:15;34.30;;;17.00;;
45694;SDS011;31408;45.468;9.124;2024-01-30T02:00:40;39.55;;;18.63;;
45694;SDS011;31408;45.468;9.124;2024-01-30T02:03:08;37.92;;;19.38;;
45694;SDS011;31408;45.468;9.124;2024-01-30T02:05:35;36.70;;;16.40;;
45694;SDS011;31408;45.468;9.124;2024-01-30T02:08:01;34.55;;;15.63;;
45694;SDS011;31408;45.468;9.124;2024-01-30T02:10:26;37.95;;;19.38;;
45694;SDS011;31408;45.468;9.124;2024-01-30T02:12:52;36.42;;;16.20;;
45694;SDS011;31408;45.468;9.124;2024-01-30T02:15:18;28.95;;;15.68;;
45694;SDS011;31408;45.468;9.124;2024-01-30T02:17:43;32.53;;;13.70;;
45694;SDS011;31408;45.468;9.124;2024-01-30T02:20:09;41.00;;;18.95;;
45694;SDS011;31408;45.468;9.124;2024-01-30T02:22:34;34.25;;;16.02;;
45694;SDS011;31408;45.468;9.124;2024-01-30T02:25:01;42.10;;;18.25;;
45694;SDS011;31408;45.468;9.124;2024-01-30T02:27:26;32.20;;;15.20;;
45694;SDS011;31408;45.468;9.124;2024-01-30T02:29:52;34.45;;;15.50;;
45694;SDS011;31408;45.468;9.124;2024-01-30T02:32:17;33.53;;;17.08;;
45694;SDS011;31408;45.468;9.124;2024-01-30T02:34:42;28.40;;;14.18;;
45694;SDS011;31408;45.468;9.124;2024-01-30T02:37:08;26.83;;;14.77;;
45694;SDS011;31408;45.468;9.124;2024-01-30T02:39:33;34.72;;;16.38;;
45694;SDS011;31408;45.468;9.124;2024-01-30T02:41:58;31.70;;;15.43;;
45694;SDS011;31408;45.468;9.124;2024-01-30T02:44:24;35.65;;;16.88;;
45694;SDS011;31408;45.468;9.124;2024-01-30T02:46:49;31.38;;;15.27;;
45694;SDS011;31408;45.468;9.124;2024-01-30T02:49:14;31.90;;;15.02;;
45694;SDS011;31408;45.468;9.124;2024-01-30T02:51:40;28.90;;;14.93;;
45694;SDS011;31408;45.468;9.124;2024-01-30T02:54:05;28.73;;;13.43;;
45694;SDS011;31408;45.468;9.124;2024-01-30T02:56:30;34.42;;;16.80;;
45694;SDS011;31408;45.468;9.124;2024-01-30T02:58:56;29.55;;;14.93;;
45694;SDS011;31408;45.468;9.124;2024-01-30T03:01:26;30.92;;;15.23;;
45694;SDS011;31408;45.468;9.124;2024-01-30T03:03:52;35.58;;;18.90;;
45694;SDS011;31408;45.468;9.124;2024-01-30T03:06:17;32.28;;;14.85;;
45694;SDS011;31408;45.468;9.124;2024-01-30T03:08:45;28.33;;;15.77;;
45694;SDS011;31408;45.468;9.124;2024-01-30T03:11:10;32.25;;;18.33;;
45694;SDS011;31408;45.468;9.124;2024-01-30T03:13:35;28.88;;;14.27;;
45694;SDS011;31408;45.468;9.124;2024-01-30T03:16:01;38.35;;;15.82;;
45694;SDS011;31408;45.468;9.124;2024-01-30T03:18:26;34.63;;;14.82;;
45694;SDS011;31408;45.468;9.124;2024-01-30T03:20:52;32.42;;;17.20;;
45694;SDS011;31408;45.468;9.124;2024-01-30T03:23:17;30.95;;;16.95;;
45694;SDS011;31408;45.468;9.124;2024-01-30T03:25:43;35.40;;;16.05;;
45694;SDS011;31408;45.468;9.124;2024-01-30T03:28:08;32.72;;;16.48;;
45694;SDS011;31408;45.468;9.124;2024-01-30T03:30:36;28.60;;;14.77;;
45694;SDS011;31408;45.468;9.124;2024-01-30T03:33:02;31.58;;;14.45;;
45694;SDS011;31408;45.468;9.124;2024-01-30T03:35:27;26.55;;;13.10;;
45694;SDS011;31408;45.468;9.124;2024-01-30T03:37:53;29.77;;;14.90;;
45694;SDS011;31408;45.468;9.124;2024-01-30T03:40:18;31.02;;;13.90;;
45694;SDS011;31408;45.468;9.124;2024-01-30T03:42:43;32.67;;;15.95;;
45694;SDS011;31408;45.468;9.124;2024-01-30T03:45:09;28.65;;;14.82;;
45694;SDS011;31408;45.468;9.124;2024-01-30T03:47:34;27.20;;;14.27;;
45694;SDS011;31408;45.468;9.124;2024-01-30T03:49:59;33.83;;;14.85;;
45694;SDS011;31408;45.468;9.124;2024-01-30T03:52:25;28.23;;;14.00;;
45694;SDS011;31408;45.468;9.124;2024-01-30T03:54:50;29.48;;;15.88;;
45694;SDS011;31408;45.468;9.124;2024-01-30T03:57:15;26.08;;;14.43;;
45694;SDS011;31408;45.468;9.124;2024-01-30T03:59:41;33.13;;;16.42;;
45694;SDS011;31408;45.468;9.124;2024-01-30T04:02:07;31.77;;;14.93;;
45694;SDS011;31408;45.468;9.124;2024-01-30T04:04:32;30.40;;;17.00;;
45694;SDS011;31408;45.468;9.124;2024-01-30T04:06:57;30.63;;;14.95;;
45694;SDS011;31408;45.468;9.124;2024-01-30T04:09:23;29.90;;;14.55;;
45694;SDS011;31408;45.468;9.124;2024-01-30T04:11:48;34.20;;;13.75;;
45694;SDS011;31408;45.468;9.124;2024-01-30T04:14:13;30.85;;;15.57;;
45694;SDS011;31408;45.468;9.124;2024-01-30T04:16:39;29.85;;;14.52;;
45694;SDS011;31408;45.468;9.124;2024-01-30T04:19:04;28.45;;;13.63;;
45694;SDS011;31408;45.468;9.124;2024-01-30T04:21:30;33.17;;;16.52;;
45694;SDS011;31408;45.468;9.124;2024-01-30T04:23:55;33.60;;;15.75;;
45694;SDS011;31408;45.468;9.124;2024-01-30T04:26:20;34.50;;;16.10;;
45694;SDS011;31408;45.468;9.124;2024-01-30T04:28:46;34.00;;;16.50;;
45694;SDS011;31408;45.468;9.124;2024-01-30T04:31:11;28.55;;;16.92;;
45694;SDS011;31408;45.468;9.124;2024-01-30T04:33:36;33.75;;;15.45;;
45694;SDS011;31408;45.468;9.124;2024-01-30T04:36:02;35.33;;;16.88;;
45694;SDS011;31408;45.468;9.124;2024-01-30T04:38:28;34.13;;;13.85;;
45694;SDS011;31408;45.468;9.124;2024-01-30T04:40:53;37.33;;;15.93;;
45694;SDS011;31408;45.468;9.124;2024-01-30T04:43:19;30.90;;;14.82;;
45694;SDS011;31408;45.468;9.124;2024-01-30T04:45:44;38.50;;;18.08;;
45694;SDS011;31408;45.468;9.124;2024-01-30T04:48:09;33.40;;;15.60;;
45694;SDS011;31408;45.468;9.124;2024-01-30T04:50:35;34.22;;;17.25;;
45694;SDS011;31408;45.468;9.124;2024-01-30T04:53:00;37.90;;;17.10;;
45694;SDS011;31408;45.468;9.124;2024-01-30T04:55:25;48.95;;;16.98;;
45694;SDS011;31408;45.468;9.124;2024-01-30T04:57:51;33.05;;;14.90;;
45694;SDS011;31408;45.468;9.124;2024-01-30T05:00:16;37.22;;;18.33;;
45694;SDS011;31408;45.468;9.124;2024-01-30T05:02:42;33.95;;;18.05;;
45694;SDS011;31408;45.468;9.124;2024-01-30T05:05:07;33.80;;;17.50;;
45694;SDS011;31408;45.468;9.124;2024-01-30T05:07:33;36.90;;;18.20;;
45694;SDS011;31408;45.468;9.124;2024-01-30T05:09:59;36.28;;;15.90;;
45694;SDS011;31408;45.468;9.124;2024-01-30T05:12:24;38.00;;;17.52;;
45694;SDS011;31408;45.468;9.124;2024-01-30T05:14:50;28.38;;;14.10;;
45694;SDS011;31408;45.468;9.124;2024-01-30T05:17:15;35.38;;;17.92;;
45694;SDS011;31408;45.468;9.124;2024-01-30T05:19:41;27.05;;;13.57;;
45694;SDS011;31408;45.468;9.124;2024-01-30T05:22:06;31.85;;;14.65;;
45694;SDS011;31408;45.468;9.124;2024-01-30T05:24:33;34.88;;;16.13;;
45694;SDS011;31408;45.468;9.124;2024-01-30T05:26:58;32.10;;;15.82;;
45694;SDS011;31408;45.468;9.124;2024-01-30T05:29:23;28.45;;;14.70;;
45694;SDS011;31408;45.468;9.124;2024-01-30T05:31:49;29.63;;;13.93;;
45694;SDS011;31408;45.468;9.124;2024-01-30T05:34:15;31.65;;;14.75;;
45694;SDS011;31408;45.468;9.124;2024-01-30T05:36:41;36.25;;;18.25;;
45694;SDS011;31408;45.468;9.124;2024-01-30T05:39:06;31.25;;;15.95;;
45694;SDS011;31408;45.468;9.124;2024-01-30T05:41:32;31.90;;;14.82;;
45694;SDS011;31408;45.468;9.124;2024-01-30T05:43:57;31.70;;;15.38;;
45694;SDS011;31408;45.468;9.124;2024-01-30T05:46:23;29.27;;;15.40;;
45694;SDS011;31408;45.468;9.124;2024-01-30T05:48:48;31.67;;;13.82;;
45694;SDS011;31408;45.468;9.124;2024-01-30T05:51:14;32.80;;;15.43;;
45694;SDS011;31408;45.468;9.124;2024-01-30T05:53:39;28.15;;;12.93;;
45694;SDS011;31408;45.468;9.124;2024-01-30T05:56:04;28.60;;;13.95;;
45694;SDS011;31408;45.468;9.124;2024-01-30T05:58:30;23.90;;;13.88;;
45694;SDS011;31408;45.468;9.124;2024-01-30T06:00:56;34.78;;;16.90;;
45694;SDS011;31408;45.468;9.124;2024-01-30T06:03:22;30.88;;;14.95;;
45694;SDS011;31408;45.468;9.124;2024-01-30T06:05:47;26.38;;;14.07;;
45694;SDS011;31408;45.468;9.124;2024-01-30T06:08:12;30.33;;;14.65;;
45694;SDS011;31408;45.468;9.124;2024-01-30T06:10:38;32.10;;;14.68;;
45694;SDS011;31408;45.468;9.124;2024-01-30T06:13:07;29.50;;;14.23;;
45694;SDS011;31408;45.468;9.124;2024-01-30T06:15:32;33.78;;;15.43;;
45694;SDS011;31408;45.468;9.124;2024-01-30T06:17:58;31.95;;;17.92;;
45694;SDS011;31408;45.468;9.124;2024-01-30T06:20:23;37.50;;;16.25;;
45694;SDS011;31408;45.468;9.124;2024-01-30T06:22:49;32.80;;;16.58;;
45694;SDS011;31408;45.468;9.124;2024-01-30T06:25:14;34.13;;;16.35;;
45694;SDS011;31408;45.468;9.124;2024-01-30T06:27:39;32.22;;;14.57;;
45694;SDS011;31408;45.468;9.124;2024-01-30T06:30:05;35.58;;;15.35;;
45694;SDS011;31408;45.468;9.124;2024-01-30T06:32:31;36.03;;;16.48;;
45694;SDS011;31408;45.468;9.124;2024-01-30T06:34:59;30.30;;;13.75;;
45694;SDS011;31408;45.468;9.124;2024-01-30T06:37:25;31.98;;;15.68;;
45694;SDS011;31408;45.468;9.124;2024-01-30T06:39:50;28.88;;;13.27;;
45694;SDS011;31408;45.468;9.124;2024-01-30T06:42:17;34.25;;;17.30;;
45694;SDS011;31408;45.468;9.124;2024-01-30T06:44:42;32.60;;;15.82;;
45694;SDS011;31408;45.468;9.124;2024-01-30T06:47:07;30.92;;;15.93;;
45694;SDS011;31408;45.468;9.124;2024-01-30T06:49:33;30.27;;;13.85;;
45694;SDS011;31408;45.468;9.124;2024-01-30T06:52:06;27.95;;;15.23;;
45694;SDS011;31408;45.468;9.124;2024-01-30T06:56:57;35.05;;;14.60;;
45694;SDS011;31408;45.468;9.124;2024-01-30T06:59:23;27.05;;;13.93;;
45694;SDS011;31408;45.468;9.124;2024-01-30T07:01:48;31.23;;;15.43;;
45694;SDS011;31408;45.468;9.124;2024-01-30T07:04:14;27.88;;;14.35;;
45694;SDS011;31408;45.468;9.124;2024-01-30T07:06:39;26.42;;;13.88;;
45694;SDS011;31408;45.468;9.124;2024-01-30T07:09:04;27.88;;;15.43;;
45694;SDS011;31408;45.468;9.124;2024-01-30T07:11:35;23.48;;;13.52;;
45694;SDS011;31408;45.468;9.124;2024-01-30T07:14:00;29.02;;;14.38;;
45694;SDS011;31408;45.468;9.124;2024-01-30T07:16:28;32.85;;;15.68;;
45694;SDS011;31408;45.468;9.124;2024-01-30T07:18:54;28.30;;;14.45;;
45694;SDS011;31408;45.468;9.124;2024-01-30T07:21:19;29.67;;;13.40;;
45694;SDS011;31408;45.468;9.124;2024-01-30T07:23:46;31.23;;;14.48;;
45694;SDS011;31408;45.468;9.124;2024-01-30T07:26:12;33.80;;;13.98;;
45694;SDS011;31408;45.468;9.124;2024-01-30T07:28:37;30.52;;;14.90;;
45694;SDS011;31408;45.468;9.124;2024-01-30T07:31:03;35.28;;;16.30;;
45694;SDS011;31408;45.468;9.124;2024-01-30T07:33:28;31.67;;;15.63;;
45694;SDS011;31408;45.468;9.124;2024-01-30T07:35:54;34.78;;;15.52;;
45694;SDS011;31408;45.468;9.124;2024-01-30T07:38:19;32.25;;;14.65;;
45694;SDS011;31408;45.468;9.124;2024-01-30T07:40:45;36.13;;;16.40;;
45694;SDS011;31408;45.468;9.124;2024-01-30T07:43:10;37.40;;;17.35;;
45694;SDS011;31408;45.468;9.124;2024-01-30T07:45:36;39.65;;;18.25;;
45694;SDS011;31408;45.468;9.124;2024-01-30T07:48:02;40.10;;;18.35;;
45694;SDS011;31408;45.468;9.124;2024-01-30T07:50:28;32.33;;;17.83;;
45694;SDS011;31408;45.468;9.124;2024-01-30T07:52:53;32.67;;;16.52;;
45694;SDS011;31408;45.468;9.124;2024-01-30T07:55:20;30.85;;;15.00;;
45694;SDS011;31408;45.468;9.124;2024-01-30T07:57:47;38.83;;;18.38;;
45694;SDS011;31408;45.468;9.124;2024-01-30T08:00:12;29.60;;;15.52;;
45694;SDS011;31408;45.468;9.124;2024-01-30T08:02:38;41.58;;;17.30;;
45694;SDS011;31408;45.468;9.124;2024-01-30T08:05:03;37.13;;;18.02;;
45694;SDS011;31408;45.468;9.124;2024-01-30T08:07:28;40.42;;;14.60;;
45694;SDS011;31408;45.468;9.124;2024-01-30T08:09:55;32.33;;;14.98;;
45694;SDS011;31408;45.468;9.124;2024-01-30T08:12:21;31.25;;;16.38;;
45694;SDS011;31408;45.468;9.124;2024-01-30T08:14:46;40.28;;;16.00;;
45694;SDS011;31408;45.468;9.124;2024-01-30T08:17:11;37.42;;;16.77;;
45694;SDS011;31408;45.468;9.124;2024-01-30T08:19:36;37.17;;;19.30;;
45694;SDS011;31408;45.468;9.124;2024-01-30T08:22:02;38.00;;;15.57;;
45694;SDS011;31408;45.468;9.124;2024-01-30T08:24:27;32.92;;;17.15;;
45694;SDS011;31408;45.468;9.124;2024-01-30T08:26:52;45.17;;;19.80;;
45694;SDS011;31408;45.468;9.124;2024-01-30T08:29:18;34.63;;;16.92;;
45694;SDS011;31408;45.468;9.124;2024-01-30T08:31:43;43.47;;;18.48;;
45694;SDS011;31408;45.468;9.124;2024-01-30T08:34:09;36.65;;;19.63;;
45694;SDS011;31408;45.468;9.124;2024-01-30T08:36:34;35.55;;;17.58;;
45694;SDS011;31408;45.468;9.124;2024-01-30T08:39:00;42.97;;;21.42;;
45694;SDS011;31408;45.468;9.124;2024-01-30T08:41:25;37.33;;;20.45;;
45694;SDS011;31408;45.468;9.124;2024-01-30T08:43:51;36.53;;;19.25;;
45694;SDS011;31408;45.468;9.124;2024-01-30T08:46:17;36.38;;;17.80;;
45694;SDS011;31408;45.468;9.124;2024-01-30T08:48:42;34.10;;;19.08;;
45694;SDS011;31408;45.468;9.124;2024-01-30T08:51:08;53.65;;;20.52;;
45694;SDS011;31408;45.468;9.124;2024-01-30T08:53:33;41.47;;;20.92;;
45694;SDS011;31408;45.468;9.124;2024-01-30T08:55:59;34.72;;;18.25;;
45694;SDS011;31408;45.468;9.124;2024-01-30T08:58:24;42.15;;;18.92;;
45694;SDS011;31408;45.468;9.124;2024-01-30T09:00:49;35.67;;;18.17;;
45694;SDS011;31408;45.468;9.124;2024-01-30T09:03:16;35.60;;;18.60;;
45694;SDS011;31408;45.468;9.124;2024-01-30T09:05:42;41.67;;;21.70;;
45694;SDS011;31408;45.468;9.124;2024-01-30T09:08:07;40.03;;;20.02;;
45694;SDS011;31408;45.468;9.124;2024-01-30T09:10:32;38.13;;;19.60;;
45694;SDS011;31408;45.468;9.124;2024-01-30T09:12:58;36.55;;;17.83;;
45694;SDS011;31408;45.468;9.124;2024-01-30T09:15:23;40.53;;;20.02;;
45694;SDS011;31408;45.468;9.124;2024-01-30T09:17:48;47.20;;;21.20;;
45694;SDS011;31408;45.468;9.124;2024-01-30T09:20:14;39.03;;;19.73;;
45694;SDS011;31408;45.468;9.124;2024-01-30T09:22:39;39.10;;;19.17;;
45694;SDS011;31408;45.468;9.124;2024-01-30T09:25:04;36.50;;;18.10;;
45694;SDS011;31408;45.468;9.124;2024-01-30T09:27:30;43.25;;;18.50;;
45694;SDS011;31408;45.468;9.124;2024-01-30T09:29:56;37.00;;;18.88;;
45694;SDS011;31408;45.468;9.124;2024-01-30T09:32:21;35.25;;;17.05;;
45694;SDS011;31408;45.468;9.124;2024-01-30T09:34:46;38.40;;;20.08;;
45694;SDS011;31408;45.468;9.124;2024-01-30T09:37:12;42.78;;;20.10;;
45694;SDS011;31408;45.468;9.124;2024-01-30T09:39:37;36.25;;;20.45;;
45694;SDS011;31408;45.468;9.124;2024-01-30T09:42:26;44.95;;;19.70;;
45694;SDS011;31408;45.468;9.124;2024-01-30T09:44:51;35.67;;;19.17;;
45694;SDS011;31408;45.468;9.124;2024-01-30T09:47:19;41.97;;;18.20;;
45694;SDS011;31408;45.468;9.124;2024-01-30T09:49:48;35.55;;;18.02;;
45694;SDS011;31408;45.468;9.124;2024-01-30T09:52:14;37.95;;;20.63;;
45694;SDS011;31408;45.468;9.124;2024-01-30T09:54:40;39.33;;;19.20;;
45694;SDS011;31408;45.468;9.124;2024-01-30T09:57:06;41.72;;;20.13;;
45694;SDS011;31408;45.468;9.124;2024-01-30T09:59:32;38.72;;;20.05;;
45694;SDS011;31408;45.468;9.124;2024-01-30T10:01:58;33.00;;;16.25;;
45694;SDS011;31408;45.468;9.124;2024-01-30T10:04:23;38.50;;;18.52;;
45694;SDS011;31408;45.468;9.124;2024-01-30T10:06:49;34.47;;;17.80;;
45694;SDS011;31408;45.468;9.124;2024-01-30T10:09:16;38.00;;;18.70;;
45694;SDS011;31408;45.468;9.124;2024-01-30T10:11:42;35.83;;;16.63;;
45694;SDS011;31408;45.468;9.124;2024-01-30T10:14:07;36.55;;;19.05;;
45694;SDS011;31408;45.468;9.124;2024-01-30T10:16:34;36.92;;;18.50;;
45694;SDS011;31408;45.468;9.124;2024-01-30T10:18:59;43.47;;;18.13;;
45694;SDS011;31408;45.468;9.124;2024-01-30T10:21:25;36.08;;;18.67;;
45694;SDS011;31408;45.468;9.124;2024-01-30T10:23:50;32.55;;;16.10;;
45694;SDS011;31408;45.468;9.124;2024-01-30T10:26:16;34.72;;;17.73;;
45694;SDS011;31408;45.468;9.124;2024-01-30T10:28:43;38.70;;;18.98;;
45694;SDS011;31408;45.468;9.124;2024-01-30T10:31:08;36.67;;;18.25;;
45694;SDS011;31408;45.468;9.124;2024-01-30T10:33:34;46.13;;;21.30;;
45694;SDS011;31408;45.468;9.124;2024-01-30T10:36:03;36.05;;;18.10;;
45694;SDS011;31408;45.468;9.124;2024-01-30T10:38:29;34.65;;;17.02;;
45694;SDS011;31408;45.468;9.124;2024-01-30T10:40:59;43.20;;;17.20;;
45694;SDS011;31408;45.468;9.124;2024-01-30T10:43:31;39.88;;;18.65;;
45694;SDS011;31408;45.468;9.124;2024-01-30T10:48:43;37.80;;;18.65;;
45694;SDS011;31408;45.468;9.124;2024-01-30T10:51:14;43.72;;;20.20;;
45694;SDS011;31408;45.468;9.124;2024-01-30T10:53:39;43.53;;;20.77;;
45694;SDS011;31408;45.468;9.124;2024-01-30T10:56:05;36.80;;;20.88;;
45694;SDS011;31408;45.468;9.124;2024-01-30T10:58:31;41.92;;;21.25;;
45694;SDS011;31408;45.468;9.124;2024-01-30T11:00:56;36.38;;;19.95;;
45694;SDS011;31408;45.468;9.124;2024-01-30T11:03:22;37.95;;;19.45;;
45694;SDS011;31408;45.468;9.124;2024-01-30T11:05:50;38.03;;;19.38;;
45694;SDS011;31408;45.468;9.124;2024-01-30T11:08:27;38.42;;;18.38;;
45694;SDS011;31408;45.468;9.124;2024-01-30T11:10:56;44.33;;;19.67;;
45694;SDS011;31408;45.468;9.124;2024-01-30T11:13:22;41.33;;;20.55;;
45694;SDS011;31408;45.468;9.124;2024-01-30T11:15:51;37.58;;;20.70;;
45694;SDS011;31408;45.468;9.124;2024-01-30T11:18:26;43.80;;;23.70;;
45694;SDS011;31408;45.468;9.124;2024-01-30T11:20:55;40.35;;;22.23;;
45694;SDS011;31408;45.468;9.124;2024-01-30T11:23:22;38.78;;;21.63;;
45694;SDS011;31408;45.468;9.124;2024-01-30T11:25:47;36.35;;;20.60;;
45694;SDS011;31408;45.468;9.124;2024-01-30T11:28:13;42.15;;;21.75;;
45694;SDS011;31408;45.468;9.124;2024-01-30T11:30:40;44.10;;;22.08;;
45694;SDS011;31408;45.468;9.124;2024-01-30T11:35:34;48.25;;;23.23;;
45694;SDS011;31408;45.468;9.124;2024-01-30T11:38:00;41.22;;;22.00;;
45694;SDS011;31408;45.468;9.124;2024-01-30T11:40:27;42.22;;;23.58;;
45694;SDS011;31408;45.468;9.124;2024-01-30T11:42:53;38.97;;;20.27;;
45694;SDS011;31408;45.468;9.124;2024-01-30T11:45:19;42.38;;;21.40;;
45694;SDS011;31408;45.468;9.124;2024-01-30T11:47:45;40.90;;;21.77;;
45694;SDS011;31408;45.468;9.124;2024-01-30T11:50:10;45.45;;;23.20;;
45694;SDS011;31408;45.468;9.124;2024-01-30T11:52:36;41.30;;;22.50;;
45694;SDS011;31408;45.468;9.124;2024-01-30T11:55:01;38.78;;;21.67;;
45694;SDS011;31408;45.468;9.124;2024-01-30T11:57:27;42.05;;;23.40;;
45694;SDS011;31408;45.468;9.124;2024-01-30T11:59:53;41.17;;;23.15;;
45694;SDS011;31408;45.468;9.124;2024-01-30T12:02:18;41.05;;;22.23;;
45694;SDS011;31408;45.468;9.124;2024-01-30T12:04:44;39.65;;;22.48;;
45694;SDS011;31408;45.468;9.124;2024-01-30T12:07:09;51.25;;;25.98;;
45694;SDS011;31408;45.468;9.124;2024-01-30T12:09:35;44.92;;;25.15;;
45694;SDS011;31408;45.468;9.124;2024-01-30T12:12:00;51.90;;;25.10;;
45694;SDS011;31408;45.468;9.124;2024-01-30T12:14:25;42.40;;;24.42;;
45694;SDS011;31408;45.468;9.124;2024-01-30T12:16:51;47.30;;;24.13;;
45694;SDS011;31408;45.468;9.124;2024-01-30T12:19:25;50.97;;;27.20;;
45694;SDS011;31408;45.468;9.124;2024-01-30T12:21:55;44.67;;;24.15;;
45694;SDS011;31408;45.468;9.124;2024-01-30T12:24:21;45.05;;;25.42;;
45694;SDS011;31408;45.468;9.124;2024-01-30T12:26:46;46.20;;;24.65;;
45694;SDS011;31408;45.468;9.124;2024-01-30T12:29:12;44.15;;;23.40;;
45694;SDS011;31408;45.468;9.124;2024-01-30T12:31:39;51.78;;;28.17;;
45694;SDS011;31408;45.468;9.124;2024-01-30T12:34:07;59.42;;;29.42;;
45694;SDS011;31408;45.468;9.124;2024-01-30T12:36:32;49.90;;;25.30;;
45694;SDS011;31408;45.468;9.124;2024-01-30T12:38:57;49.80;;;24.23;;
45694;SDS011;31408;45.468;9.124;2024-01-30T12:41:23;50.13;;;26.90;;
45694;SDS011;31408;45.468;9.124;2024-01-30T12:43:53;46.95;;;22.83;;
45694;SDS011;31408;45.468;9.124;2024-01-30T12:46:18;45.05;;;24.67;;
45694;SDS011;31408;45.468;9.124;2024-01-30T12:48:43;58.30;;;25.65;;
45694;SDS011;31408;45.468;9.124;2024-01-30T12:51:09;42.65;;;21.90;;
45694;SDS011;31408;45.468;9.124;2024-01-30T12:53:34;44.30;;;24.77;;
45694;SDS011;31408;45.468;9.124;2024-01-30T12:56:00;50.47;;;25.92;;
45694;SDS011;31408;45.468;9.124;2024-01-30T12:58:25;48.45;;;25.77;;
45694;SDS011;31408;45.468;9.124;2024-01-30T13:00:50;50.67;;;25.60;;
45694;SDS011;31408;45.468;9.124;2024-01-30T13:03:16;52.40;;;25.95;;
45694;SDS011;31408;45.468;9.124;2024-01-30T13:05:41;48.55;;;28.02;;
45694;SDS011;31408;45.468;9.124;2024-01-30T13:08:07;54.55;;;25.92;;
45694;SDS011;31408;45.468;9.124;2024-01-30T13:10:32;47.75;;;25.35;;
45694;SDS011;31408;45.468;9.124;2024-01-30T13:12:58;52.53;;;29.35;;
45694;SDS011;31408;45.468;9.124;2024-01-30T13:15:23;56.20;;;30.20;;
45694;SDS011;31408;45.468;9.124;2024-01-30T13:17:49;54.47;;;32.00;;
45694;SDS011;31408;45.468;9.124;2024-01-30T13:20:14;53.45;;;29.48;;
45694;SDS011;31408;45.468;9.124;2024-01-30T13:22:44;48.63;;;27.50;;
45694;SDS011;31408;45.468;9.124;2024-01-30T13:25:09;50.00;;;25.33;;
45694;SDS011;31408;45.468;9.124;2024-01-30T13:27:35;38.58;;;22.67;;
45694;SDS011;31408;45.468;9.124;2024-01-30T13:30:01;52.40;;;25.90;;
45694;SDS011;31408;45.468;9.124;2024-01-30T13:32:26;46.60;;;25.48;;
45694;SDS011;31408;45.468;9.124;2024-01-30T13:34:51;48.35;;;28.10;;
45694;SDS011;31408;45.468;9.124;2024-01-30T13:37:17;44.55;;;24.27;;
45694;SDS011;31408;45.468;9.124;2024-01-30T13:39:42;44.15;;;24.92;;
45694;SDS011;31408;45.468;9.124;2024-01-30T13:42:07;45.65;;;24.80;;
45694;SDS011;31408;45.468;9.124;2024-01-30T13:44:34;37.70;;;21.60;;
45694;SDS011;31408;45.468;9.124;2024-01-30T13:46:59;53.65;;;26.13;;
45694;SDS011;31408;45.468;9.124;2024-01-30T13:49:24;44.95;;;24.15;;
45694;SDS011;31408;45.468;9.124;2024-01-30T13:51:50;43.40;;;22.80;;
45694;SDS011;31408;45.468;9.124;2024-01-30T13:54:15;46.40;;;23.20;;
45694;SDS011;31408;45.468;9.124;2024-01-30T13:56:44;45.40;;;24.40;;
45694;SDS011;31408;45.468;9.124;2024-01-30T13:59:09;51.70;;;25.52;;
45694;SDS011;31408;45.468;9.124;2024-01-30T14:01:34;46.33;;;23.90;;
45694;SDS011;31408;45.468;9.124;2024-01-30T14:04:00;49.28;;;24.58;;
45694;SDS011;31408;45.468;9.124;2024-01-30T14:06:25;49.33;;;24.48;;
45694;SDS011;31408;45.468;9.124;2024-01-30T14:08:50;39.10;;;22.30;;
45694;SDS011;31408;45.468;9.124;2024-01-30T14:11:16;47.42;;;25.25;;
45694;SDS011;31408;45.468;9.124;2024-01-30T14:13:41;41.92;;;24.70;;
45694;SDS011;31408;45.468;9.124;2024-01-30T14:16:06;45.83;;;23.88;;
45694;SDS011;31408;45.468;9.124;2024-01-30T14:18:32;51.47;;;25.85;;
45694;SDS011;31408;45.468;9.124;2024-01-30T14:20:57;44.60;;;23.63;;